sensor_id;sensor_type;location;lat;lon;timestamp;temperature;humidity
19152;DHT22;9708;53.114;9.388;2022-12-07T03:44:31;3.20;99.90
19152;DHT22;9708;53.114;9.388;2022-12-07T03:47:02;3.20;99.90
19152;DHT22;9708;53.114;9.388;2022-12-07T03:49:34;3.20;99.90
19152;DHT22;9708;53.114;9.388;2022-12-07T03:52:08;3.20;99.90
19152;DHT22;9708;53.114;9.388;2022-12-07T03:54:41;3.20;99.90
19152;DHT22;9708;53.114;9.388;2022-12-07T03:57:10;3.10;99.90
19152;DHT22;9708;53.114;9.388;2022-12-07T03:59:40;3.10;99.90
19152;DHT22;9708;53.114;9.388;2022-12-07T04:02:11;3.10;99.90
19152;DHT22;9708;53.114;9.388;2022-12-07T04:04:38;3.10;99.90
19152;DHT22;9708;53.114;9.388;2022-12-07T04:07:05;3.10;99.90
19152;DHT22;9708;53.114;9.388;2022-12-07T04:09:32;3.20;99.90
19152;DHT22;9708;53.114;9.388;2022-12-07T04:11:59;3.20;99.90
19152;DHT22;9708;53.114;9.388;2022-12-07T04:14:26;3.20;99.90
19152;DHT22;9708;53.114;9.388;2022-12-07T04:16:55;3.30;99.90
19152;DHT22;9708;53.114;9.388;2022-12-07T04:19:25;3.40;99.90
19152;DHT22;9708;53.114;9.388;2022-12-07T04:21:52;3.40;99.90
19152;DHT22;9708;53.114;9.388;2022-12-07T04:24:19;3.40;99.90
19152;DHT22;9708;53.114;9.388;2022-12-07T04:26:46;3.40;99.90
19152;DHT22;9708;53.114;9.388;2022-12-07T04:29:14;3.40;99.90
19152;DHT22;9708;53.114;9.388;2022-12-07T04:31:42;3.50;99.90
19152;DHT22;9708;53.114;9.388;2022-12-07T04:34:10;3.50;99.90
19152;DHT22;9708;53.114;9.388;2022-12-07T04:36:37;3.60;99.90
19152;DHT22;9708;53.114;9.388;2022-12-07T04:39:05;3.70;99.90
19152;DHT22;9708;53.114;9.388;2022-12-07T04:41:32;3.80;99.90
19152;DHT22;9708;53.114;9.388;2022-12-07T04:44:00;3.80;99.90
19152;DHT22;9708;53.114;9.388;2022-12-07T04:46:29;3.80;99.90
19152;DHT22;9708;53.114;9.388;2022-12-07T04:48:56;4.00;99.90
19152;DHT22;9708;53.114;9.388;2022-12-07T04:51:26;4.00;99.90
19152;DHT22;9708;53.114;9.388;2022-12-07T04:53:53;4.10;99.90
19152;DHT22;9708;53.114;9.388;2022-12-07T04:56:22;4.00;99.90
19152;DHT22;9708;53.114;9.388;2022-12-07T04:58:49;3.90;99.90
19152;DHT22;9708;53.114;9.388;2022-12-07T05:01:17;3.70;99.90
19152;DHT22;9708;53.114;9.388;2022-12-07T05:03:44;3.70;99.90
19152;DHT22;9708;53.114;9.388;2022-12-07T05:06:11;3.70;99.90
19152;DHT22;9708;53.114;9.388;2022-12-07T05:08:40;3.70;99.90
19152;DHT22;9708;53.114;9.388;2022-12-07T05:11:08;3.60;99.90
19152;DHT22;9708;53.114;9.388;2022-12-07T05:13:35;3.60;99.90
19152;DHT22;9708;53.114;9.388;2022-12-07T05:16:02;3.50;99.90
19152;DHT22;9708;53.114;9.388;2022-12-07T05:18:29;3.40;99.90
19152;DHT22;9708;53.114;9.388;2022-12-07T05:20:56;3.40;99.90
19152;DHT22;9708;53.114;9.388;2022-12-07T05:23:22;3.40;99.90
19152;DHT22;9708;53.114;9.388;2022-12-07T05:25:51;3.40;99.90
19152;DHT22;9708;53.114;9.388;2022-12-07T05:28:18;3.40;99.90
19152;DHT22;9708;53.114;9.388;2022-12-07T05:30:45;3.30;99.90
19152;DHT22;9708;53.114;9.388;2022-12-07T05:33:12;3.30;99.90
19152;DHT22;9708;53.114;9.388;2022-12-07T05:35:39;3.30;99.90
19152;DHT22;9708;53.114;9.388;2022-12-07T05:38:05;3.20;99.90
19152;DHT22;9708;53.114;9.388;2022-12-07T05:40:32;3.30;99.90
19152;DHT22;9708;53.114;9.388;2022-12-07T05:43:00;3.20;99.90
19152;DHT22;9708;53.114;9.388;2022-12-07T05:45:26;3.20;99.90
19152;DHT22;9708;53.114;9.388;2022-12-07T05:47:53;3.20;99.90
19152;DHT22;9708;53.114;9.388;2022-12-07T05:50:20;3.30;99.90
19152;DHT22;9708;53.114;9.388;2022-12-07T05:52:46;3.30;99.90
19152;DHT22;9708;53.114;9.388;2022-12-07T05:55:13;3.30;99.90
19152;DHT22;9708;53.114;9.388;2022-12-07T05:57:40;3.30;99.90
19152;DHT22;9708;53.114;9.388;2022-12-07T06:00:29;3.20;99.90
19152;DHT22;9708;53.114;9.388;2022-12-07T06:02:55;3.30;99.90
19152;DHT22;9708;53.114;9.388;2022-12-07T06:05:22;3.30;99.90
19152;DHT22;9708;53.114;9.388;2022-12-07T06:07:49;3.30;99.90
19152;DHT22;9708;53.114;9.388;2022-12-07T06:10:16;3.30;99.90
19152;DHT22;9708;53.114;9.388;2022-12-07T06:12:42;3.40;99.90
19152;DHT22;9708;53.114;9.388;2022-12-07T06:15:11;3.40;99.90
19152;DHT22;9708;53.114;9.388;2022-12-07T06:17:40;3.50;99.90
19152;DHT22;9708;53.114;9.388;2022-12-07T06:20:07;3.50;99.90
19152;DHT22;9708;53.114;9.388;2022-12-07T06:22:34;3.50;99.90
19152;DHT22;9708;53.114;9.388;2022-12-07T06:25:01;3.50;99.90
19152;DHT22;9708;53.114;9.388;2022-12-07T06:27:29;3.50;99.90
19152;DHT22;9708;53.114;9.388;2022-12-07T06:29:56;3.50;99.90
19152;DHT22;9708;53.114;9.388;2022-12-07T06:32:23;3.50;99.90
19152;DHT22;9708;53.114;9.388;2022-12-07T06:34:51;3.50;99.90
19152;DHT22;9708;53.114;9.388;2022-12-07T06:37:18;3.50;99.90
19152;DHT22;9708;53.114;9.388;2022-12-07T06:39:45;3.50;99.90
19152;DHT22;9708;53.114;9.388;2022-12-07T06:42:11;3.50;99.90
19152;DHT22;9708;53.114;9.388;2022-12-07T06:44:38;3.40;99.90
19152;DHT22;9708;53.114;9.388;2022-12-07T06:47:05;3.40;99.90
19152;DHT22;9708;53.114;9.388;2022-12-07T06:49:33;3.40;99.90
19152;DHT22;9708;53.114;9.388;2022-12-07T06:52:01;3.40;99.90
19152;DHT22;9708;53.114;9.388;2022-12-07T06:54:28;3.30;99.90
19152;DHT22;9708;53.114;9.388;2022-12-07T06:56:55;3.30;99.90
19152;DHT22;9708;53.114;9.388;2022-12-07T06:59:22;3.30;99.90
19152;DHT22;9708;53.114;9.388;2022-12-07T07:01:49;3.30;99.90
19152;DHT22;9708;53.114;9.388;2022-12-07T07:04:16;3.20;99.90
19152;DHT22;9708;53.114;9.388;2022-12-07T07:06:42;3.20;99.90
19152;DHT22;9708;53.114;9.388;2022-12-07T07:09:10;3.20;99.90
19152;DHT22;9708;53.114;9.388;2022-12-07T07:11:37;3.20;99.90
19152;DHT22;9708;53.114;9.388;2022-12-07T07:14:04;3.10;99.90
19152;DHT22;9708;53.114;9.388;2022-12-07T07:16:31;3.20;99.90
19152;DHT22;9708;53.114;9.388;2022-12-07T07:18:57;3.10;99.90
19152;DHT22;9708;53.114;9.388;2022-12-07T07:21:24;3.20;99.90
19152;DHT22;9708;53.114;9.388;2022-12-07T07:23:51;3.20;99.90
19152;DHT22;9708;53.114;9.388;2022-12-07T07:26:19;3.10;99.90
19152;DHT22;9708;53.114;9.388;2022-12-07T07:28:46;3.20;99.90
19152;DHT22;9708;53.114;9.388;2022-12-07T07:31:13;3.20;99.90
19152;DHT22;9708;53.114;9.388;2022-12-07T07:33:39;3.20;99.90
19152;DHT22;9708;53.114;9.388;2022-12-07T07:36:06;3.20;99.90
19152;DHT22;9708;53.114;9.388;2022-12-07T07:38:33;3.10;99.90
19152;DHT22;9708;53.114;9.388;2022-12-07T07:41:00;3.20;99.90
19152;DHT22;9708;53.114;9.388;2022-12-07T07:43:28;3.20;99.90
19152;DHT22;9708;53.114;9.388;2022-12-07T07:45:55;3.20;99.90
19152;DHT22;9708;53.114;9.388;2022-12-07T07:48:22;3.20;99.90
19152;DHT22;9708;53.114;9.388;2022-12-07T07:50:51;3.30;99.90
19152;DHT22;9708;53.114;9.388;2022-12-07T07:53:17;3.30;99.90
19152;DHT22;9708;53.114;9.388;2022-12-07T07:55:50;3.30;99.90
19152;DHT22;9708;53.114;9.388;2022-12-07T07:58:17;3.30;99.90
19152;DHT22;9708;53.114;9.388;2022-12-07T08:00:45;3.30;99.90
19152;DHT22;9708;53.114;9.388;2022-12-07T08:03:12;3.30;99.90
19152;DHT22;9708;53.114;9.388;2022-12-07T08:05:38;3.30;99.90
19152;DHT22;9708;53.114;9.388;2022-12-07T08:08:08;3.30;99.90
19152;DHT22;9708;53.114;9.388;2022-12-07T08:10:35;3.30;99.90
19152;DHT22;9708;53.114;9.388;2022-12-07T08:13:02;3.40;99.90
19152;DHT22;9708;53.114;9.388;2022-12-07T08:15:40;3.50;99.90
19152;DHT22;9708;53.114;9.388;2022-12-07T08:18:09;3.50;99.90
19152;DHT22;9708;53.114;9.388;2022-12-07T08:20:37;3.50;99.90
19152;DHT22;9708;53.114;9.388;2022-12-07T08:23:06;3.60;99.90
19152;DHT22;9708;53.114;9.388;2022-12-07T08:25:34;3.60;99.90
19152;DHT22;9708;53.114;9.388;2022-12-07T08:28:01;3.80;99.90
19152;DHT22;9708;53.114;9.388;2022-12-07T08:30:28;3.80;99.90
19152;DHT22;9708;53.114;9.388;2022-12-07T08:32:55;3.90;99.90
19152;DHT22;9708;53.114;9.388;2022-12-07T08:35:24;3.90;99.90
19152;DHT22;9708;53.114;9.388;2022-12-07T08:37:51;3.80;99.90
19152;DHT22;9708;53.114;9.388;2022-12-07T08:40:18;3.90;99.90
19152;DHT22;9708;53.114;9.388;2022-12-07T08:42:48;3.90;99.90
19152;DHT22;9708;53.114;9.388;2022-12-07T08:45:17;3.90;99.90
19152;DHT22;9708;53.114;9.388;2022-12-07T08:47:46;3.90;99.90
19152;DHT22;9708;53.114;9.388;2022-12-07T08:50:14;4.00;99.90
19152;DHT22;9708;53.114;9.388;2022-12-07T08:52:42;4.00;99.90
19152;DHT22;9708;53.114;9.388;2022-12-07T08:55:11;4.00;99.90
19152;DHT22;9708;53.114;9.388;2022-12-07T08:57:39;4.00;99.90
19152;DHT22;9708;53.114;9.388;2022-12-07T09:00:07;4.10;99.90
19152;DHT22;9708;53.114;9.388;2022-12-07T09:02:34;4.10;99.90
19152;DHT22;9708;53.114;9.388;2022-12-07T09:05:01;4.10;99.90
19152;DHT22;9708;53.114;9.388;2022-12-07T09:07:30;4.10;99.90
19152;DHT22;9708;53.114;9.388;2022-12-07T09:09:59;4.10;99.90
19152;DHT22;9708;53.114;9.388;2022-12-07T09:12:26;4.10;99.90
19152;DHT22;9708;53.114;9.388;2022-12-07T09:14:53;4.10;99.90
19152;DHT22;9708;53.114;9.388;2022-12-07T09:17:20;4.10;99.90
19152;DHT22;9708;53.114;9.388;2022-12-07T09:19:46;4.30;99.90
19152;DHT22;9708;53.114;9.388;2022-12-07T09:22:13;4.30;99.90
19152;DHT22;9708;53.114;9.388;2022-12-07T09:24:40;4.40;99.90
19152;DHT22;9708;53.114;9.388;2022-12-07T09:27:08;4.60;99.90
19152;DHT22;9708;53.114;9.388;2022-12-07T09:29:35;4.70;99.90
19152;DHT22;9708;53.114;9.388;2022-12-07T09:32:01;4.70;99.90
19152;DHT22;9708;53.114;9.388;2022-12-07T09:34:30;4.70;99.90
19152;DHT22;9708;53.114;9.388;2022-12-07T09:36:57;5.00;99.90
19152;DHT22;9708;53.114;9.388;2022-12-07T09:39:24;4.80;99.90
19152;DHT22;9708;53.114;9.388;2022-12-07T09:41:51;4.90;99.90
19152;DHT22;9708;53.114;9.388;2022-12-07T09:44:24;4.80;99.90
19152;DHT22;9708;53.114;9.388;2022-12-07T09:46:52;4.80;99.90
19152;DHT22;9708;53.114;9.388;2022-12-07T09:49:21;4.70;99.90
19152;DHT22;9708;53.114;9.388;2022-12-07T09:52:00;4.70;99.90
19152;DHT22;9708;53.114;9.388;2022-12-07T09:54:28;4.70;99.90
19152;DHT22;9708;53.114;9.388;2022-12-07T09:56:56;4.60;99.90
19152;DHT22;9708;53.114;9.388;2022-12-07T09:59:24;4.70;99.90
19152;DHT22;9708;53.114;9.388;2022-12-07T10:01:51;4.70;99.90
19152;DHT22;9708;53.114;9.388;2022-12-07T10:04:20;4.80;99.90
19152;DHT22;9708;53.114;9.388;2022-12-07T10:06:47;4.80;99.90
19152;DHT22;9708;53.114;9.388;2022-12-07T10:09:17;4.80;99.90
19152;DHT22;9708;53.114;9.388;2022-12-07T10:12:02;4.80;99.90
19152;DHT22;9708;53.114;9.388;2022-12-07T10:14:32;4.80;99.90
19152;DHT22;9708;53.114;9.388;2022-12-07T10:16:59;4.80;99.90
19152;DHT22;9708;53.114;9.388;2022-12-07T10:19:28;4.80;99.90
19152;DHT22;9708;53.114;9.388;2022-12-07T10:22:05;5.00;99.90
19152;DHT22;9708;53.114;9.388;2022-12-07T10:24:32;5.90;99.90
19152;DHT22;9708;53.114;9.388;2022-12-07T10:26:59;6.90;99.90
19152;DHT22;9708;53.114;9.388;2022-12-07T10:29:31;7.80;99.90
19152;DHT22;9708;53.114;9.388;2022-12-07T10:32:00;8.50;99.90
19152;DHT22;9708;53.114;9.388;2022-12-07T10:34:28;9.10;99.90
19152;DHT22;9708;53.114;9.388;2022-12-07T10:37:14;8.50;99.90
19152;DHT22;9708;53.114;9.388;2022-12-07T10:39:42;8.50;99.90
19152;DHT22;9708;53.114;9.388;2022-12-07T10:42:17;7.70;99.90
19152;DHT22;9708;53.114;9.388;2022-12-07T10:44:46;7.20;99.90
19152;DHT22;9708;53.114;9.388;2022-12-07T10:47:35;6.80;99.90
19152;DHT22;9708;53.114;9.388;2022-12-07T10:56:21;6.10;99.90
19152;DHT22;9708;53.114;9.388;2022-12-07T10:58:59;6.10;99.90
19152;DHT22;9708;53.114;9.388;2022-12-07T11:01:33;6.00;99.90
19152;DHT22;9708;53.114;9.388;2022-12-07T11:04:18;6.10;99.90
19152;DHT22;9708;53.114;9.388;2022-12-07T11:06:54;6.30;99.90
19152;DHT22;9708;53.114;9.388;2022-12-07T11:12:32;6.10;99.90
19152;DHT22;9708;53.114;9.388;2022-12-07T11:15:07;6.10;99.90
19152;DHT22;9708;53.114;9.388;2022-12-07T11:17:45;6.20;99.90
19152;DHT22;9708;53.114;9.388;2022-12-07T11:20:29;6.70;99.90
19152;DHT22;9708;53.114;9.388;2022-12-07T11:23:03;6.80;99.90
19152;DHT22;9708;53.114;9.388;2022-12-07T11:25:37;6.80;99.90
19152;DHT22;9708;53.114;9.388;2022-12-07T11:28:18;6.60;99.90
19152;DHT22;9708;53.114;9.388;2022-12-07T11:30:55;6.50;99.90
19152;DHT22;9708;53.114;9.388;2022-12-07T11:33:29;6.50;99.90
19152;DHT22;9708;53.114;9.388;2022-12-07T11:36:13;6.30;99.90
19152;DHT22;9708;53.114;9.388;2022-12-07T11:38:45;5.90;99.90
19152;DHT22;9708;53.114;9.388;2022-12-07T11:41:18;5.70;99.90
19152;DHT22;9708;53.114;9.388;2022-12-07T11:43:54;5.60;99.90
19152;DHT22;9708;53.114;9.388;2022-12-07T11:46:24;5.50;99.90
19152;DHT22;9708;53.114;9.388;2022-12-07T11:48:58;5.40;99.90
19152;DHT22;9708;53.114;9.388;2022-12-07T11:51:28;5.40;99.90
19152;DHT22;9708;53.114;9.388;2022-12-07T11:53:58;5.40;99.90
19152;DHT22;9708;53.114;9.388;2022-12-07T11:56:28;5.40;99.90
19152;DHT22;9708;53.114;9.388;2022-12-07T11:59:00;5.40;99.90
19152;DHT22;9708;53.114;9.388;2022-12-07T12:01:39;5.20;99.90
19152;DHT22;9708;53.114;9.388;2022-12-07T12:04:27;5.50;99.90
19152;DHT22;9708;53.114;9.388;2022-12-07T12:06:55;5.50;99.90
19152;DHT22;9708;53.114;9.388;2022-12-07T12:09:26;5.40;99.90
19152;DHT22;9708;53.114;9.388;2022-12-07T12:12:19;5.40;99.90
19152;DHT22;9708;53.114;9.388;2022-12-07T12:14:58;5.50;99.90
19152;DHT22;9708;53.114;9.388;2022-12-07T12:17:50;5.50;99.90
19152;DHT22;9708;53.114;9.388;2022-12-07T12:20:25;5.60;99.90
19152;DHT22;9708;53.114;9.388;2022-12-07T12:22:57;5.50;99.90
19152;DHT22;9708;53.114;9.388;2022-12-07T12:25:27;5.50;99.90
19152;DHT22;9708;53.114;9.388;2022-12-07T12:27:56;5.60;99.90
19152;DHT22;9708;53.114;9.388;2022-12-07T12:30:29;5.50;99.90
19152;DHT22;9708;53.114;9.388;2022-12-07T12:33:03;5.50;99.90
19152;DHT22;9708;53.114;9.388;2022-12-07T12:35:34;5.40;99.90
19152;DHT22;9708;53.114;9.388;2022-12-07T12:38:21;5.40;99.90
19152;DHT22;9708;53.114;9.388;2022-12-07T12:40:52;5.40;99.90
19152;DHT22;9708;53.114;9.388;2022-12-07T12:43:56;5.40;99.90
19152;DHT22;9708;53.114;9.388;2022-12-07T12:46:51;5.40;99.90
19152;DHT22;9708;53.114;9.388;2022-12-07T12:49:42;5.30;99.90
19152;DHT22;9708;53.114;9.388;2022-12-07T12:55:15;5.20;99.90
19152;DHT22;9708;53.114;9.388;2022-12-07T12:57:47;5.20;99.90
19152;DHT22;9708;53.114;9.388;2022-12-07T13:00:18;5.20;99.90
19152;DHT22;9708;53.114;9.388;2022-12-07T13:02:50;5.30;99.90
19152;DHT22;9708;53.114;9.388;2022-12-07T13:05:20;5.40;99.90
19152;DHT22;9708;53.114;9.388;2022-12-07T13:07:54;5.60;99.90
19152;DHT22;9708;53.114;9.388;2022-12-07T13:10:33;5.60;99.90
19152;DHT22;9708;53.114;9.388;2022-12-07T13:13:02;5.40;99.90
19152;DHT22;9708;53.114;9.388;2022-12-07T13:15:37;5.40;99.90
19152;DHT22;9708;53.114;9.388;2022-12-07T13:18:23;4.80;99.90
19152;DHT22;9708;53.114;9.388;2022-12-07T13:20:53;4.60;99.90
19152;DHT22;9708;53.114;9.388;2022-12-07T13:23:23;4.60;99.90
19152;DHT22;9708;53.114;9.388;2022-12-07T13:26:19;4.80;99.90
19152;DHT22;9708;53.114;9.388;2022-12-07T13:28:48;4.80;99.90
19152;DHT22;9708;53.114;9.388;2022-12-07T13:31:31;4.60;99.90
19152;DHT22;9708;53.114;9.388;2022-12-07T13:33:59;4.80;99.90
19152;DHT22;9708;53.114;9.388;2022-12-07T13:36:46;4.70;99.90
19152;DHT22;9708;53.114;9.388;2022-12-07T13:39:18;4.50;99.90
19152;DHT22;9708;53.114;9.388;2022-12-07T13:41:51;4.40;99.90
19152;DHT22;9708;53.114;9.388;2022-12-07T13:44:19;4.40;99.90
19152;DHT22;9708;53.114;9.388;2022-12-07T13:46:52;4.40;99.90
19152;DHT22;9708;53.114;9.388;2022-12-07T13:49:23;4.40;99.90
19152;DHT22;9708;53.114;9.388;2022-12-07T13:51:51;4.30;99.90
19152;DHT22;9708;53.114;9.388;2022-12-07T13:54:18;4.40;99.90
19152;DHT22;9708;53.114;9.388;2022-12-07T13:56:49;4.40;99.90
19152;DHT22;9708;53.114;9.388;2022-12-07T13:59:18;4.30;99.90
19152;DHT22;9708;53.114;9.388;2022-12-07T14:01:47;4.30;99.90
19152;DHT22;9708;53.114;9.388;2022-12-07T14:04:32;4.40;99.90
19152;DHT22;9708;53.114;9.388;2022-12-07T14:07:00;4.60;99.90
19152;DHT22;9708;53.114;9.388;2022-12-07T14:09:28;4.40;99.90
19152;DHT22;9708;53.114;9.388;2022-12-07T14:11:57;4.30;99.90
19152;DHT22;9708;53.114;9.388;2022-12-07T14:14:26;4.30;99.90
19152;DHT22;9708;53.114;9.388;2022-12-07T14:17:00;4.20;99.90
19152;DHT22;9708;53.114;9.388;2022-12-07T14:19:47;4.20;99.90
19152;DHT22;9708;53.114;9.388;2022-12-07T14:22:23;4.20;99.90
19152;DHT22;9708;53.114;9.388;2022-12-07T14:24:50;4.10;99.90
19152;DHT22;9708;53.114;9.388;2022-12-07T14:27:21;4.10;99.90
19152;DHT22;9708;53.114;9.388;2022-12-07T14:29:51;4.10;99.90
19152;DHT22;9708;53.114;9.388;2022-12-07T14:32:23;4.00;99.90
19152;DHT22;9708;53.114;9.388;2022-12-07T14:34:55;3.90;99.90
19152;DHT22;9708;53.114;9.388;2022-12-07T14:37:23;4.00;99.90
19152;DHT22;9708;53.114;9.388;2022-12-07T14:39:49;4.00;99.90
19152;DHT22;9708;53.114;9.388;2022-12-07T14:42:18;4.10;99.90
19152;DHT22;9708;53.114;9.388;2022-12-07T14:44:45;4.10;99.90
19152;DHT22;9708;53.114;9.388;2022-12-07T14:47:12;4.00;99.90
19152;DHT22;9708;53.114;9.388;2022-12-07T14:49:39;4.00;99.90
19152;DHT22;9708;53.114;9.388;2022-12-07T14:52:11;4.00;99.90
19152;DHT22;9708;53.114;9.388;2022-12-07T14:54:41;4.00;99.90
19152;DHT22;9708;53.114;9.388;2022-12-07T14:57:09;4.10;99.90
19152;DHT22;9708;53.114;9.388;2022-12-07T14:59:37;4.20;99.90
19152;DHT22;9708;53.114;9.388;2022-12-07T15:02:05;4.20;99.90
19152;DHT22;9708;53.114;9.388;2022-12-07T15:04:32;4.00;99.90
19152;DHT22;9708;53.114;9.388;2022-12-07T15:07:00;3.80;99.90
19152;DHT22;9708;53.114;9.388;2022-12-07T15:09:27;3.70;99.90
19152;DHT22;9708;53.114;9.388;2022-12-07T15:11:54;3.60;99.90
19152;DHT22;9708;53.114;9.388;2022-12-07T15:14:21;3.50;99.90
19152;DHT22;9708;53.114;9.388;2022-12-07T15:16:49;3.40;99.90
19152;DHT22;9708;53.114;9.388;2022-12-07T15:19:17;3.10;99.90
19152;DHT22;9708;53.114;9.388;2022-12-07T15:21:45;3.00;99.90
19152;DHT22;9708;53.114;9.388;2022-12-07T15:24:12;2.90;99.90
19152;DHT22;9708;53.114;9.388;2022-12-07T15:26:40;2.80;99.90
19152;DHT22;9708;53.114;9.388;2022-12-07T15:29:07;2.70;99.90
19152;DHT22;9708;53.114;9.388;2022-12-07T15:31:35;2.70;99.90
19152;DHT22;9708;53.114;9.388;2022-12-07T15:34:03;2.60;99.90
19152;DHT22;9708;53.114;9.388;2022-12-07T15:36:31;2.50;99.90
19152;DHT22;9708;53.114;9.388;2022-12-07T15:38:58;2.40;99.90
19152;DHT22;9708;53.114;9.388;2022-12-07T15:41:26;2.40;99.90
19152;DHT22;9708;53.114;9.388;2022-12-07T15:43:53;2.40;99.90
19152;DHT22;9708;53.114;9.388;2022-12-07T15:46:39;2.50;99.90
19152;DHT22;9708;53.114;9.388;2022-12-07T15:49:10;2.60;99.90
19152;DHT22;9708;53.114;9.388;2022-12-07T15:51:38;2.70;99.90
19152;DHT22;9708;53.114;9.388;2022-12-07T15:54:04;2.80;99.90
19152;DHT22;9708;53.114;9.388;2022-12-07T15:56:31;2.80;99.90
19152;DHT22;9708;53.114;9.388;2022-12-07T15:58:58;2.80;99.90
19152;DHT22;9708;53.114;9.388;2022-12-07T16:01:25;2.90;99.90
19152;DHT22;9708;53.114;9.388;2022-12-07T16:03:52;2.80;99.90
19152;DHT22;9708;53.114;9.388;2022-12-07T16:06:20;2.80;99.90
19152;DHT22;9708;53.114;9.388;2022-12-07T16:08:46;2.80;99.90
19152;DHT22;9708;53.114;9.388;2022-12-07T16:11:13;2.80;99.90
19152;DHT22;9708;53.114;9.388;2022-12-07T16:13:40;2.90;99.90
19152;DHT22;9708;53.114;9.388;2022-12-07T16:16:10;2.90;99.90
19152;DHT22;9708;53.114;9.388;2022-12-07T16:18:36;3.00;99.90
19152;DHT22;9708;53.114;9.388;2022-12-07T16:21:03;3.00;99.90
19152;DHT22;9708;53.114;9.388;2022-12-07T16:23:32;3.10;99.90
19152;DHT22;9708;53.114;9.388;2022-12-07T16:26:05;3.10;99.90
19152;DHT22;9708;53.114;9.388;2022-12-07T16:28:31;3.20;99.90
19152;DHT22;9708;53.114;9.388;2022-12-07T16:31:03;3.20;99.90
19152;DHT22;9708;53.114;9.388;2022-12-07T16:33:30;3.20;99.90
19152;DHT22;9708;53.114;9.388;2022-12-07T16:35:58;3.20;99.90
19152;DHT22;9708;53.114;9.388;2022-12-07T16:38:25;3.20;99.90
19152;DHT22;9708;53.114;9.388;2022-12-07T16:40:53;3.20;99.90
19152;DHT22;9708;53.114;9.388;2022-12-07T16:43:20;3.20;99.90
19152;DHT22;9708;53.114;9.388;2022-12-07T16:45:47;3.20;99.90
19152;DHT22;9708;53.114;9.388;2022-12-07T16:48:15;3.20;99.90
19152;DHT22;9708;53.114;9.388;2022-12-07T16:50:43;3.40;99.90
19152;DHT22;9708;53.114;9.388;2022-12-07T16:53:10;3.60;99.90
19152;DHT22;9708;53.114;9.388;2022-12-07T16:55:37;3.70;99.90
19152;DHT22;9708;53.114;9.388;2022-12-07T16:58:06;3.50;99.90
19152;DHT22;9708;53.114;9.388;2022-12-07T17:00:33;3.20;99.90
19152;DHT22;9708;53.114;9.388;2022-12-07T17:03:00;3.00;99.90
19152;DHT22;9708;53.114;9.388;2022-12-07T17:05:27;2.90;99.90
19152;DHT22;9708;53.114;9.388;2022-12-07T17:07:55;2.80;99.90
19152;DHT22;9708;53.114;9.388;2022-12-07T17:10:22;2.70;99.90
19152;DHT22;9708;53.114;9.388;2022-12-07T17:12:49;2.70;99.90
19152;DHT22;9708;53.114;9.388;2022-12-07T17:15:18;2.50;99.90
19152;DHT22;9708;53.114;9.388;2022-12-07T17:17:47;2.40;99.90
19152;DHT22;9708;53.114;9.388;2022-12-07T17:20:17;2.30;99.90
19152;DHT22;9708;53.114;9.388;2022-12-07T17:22:44;2.30;99.90
19152;DHT22;9708;53.114;9.388;2022-12-07T17:25:11;2.20;99.90
19152;DHT22;9708;53.114;9.388;2022-12-07T17:27:38;2.20;99.90
19152;DHT22;9708;53.114;9.388;2022-12-07T17:30:06;2.10;99.90
19152;DHT22;9708;53.114;9.388;2022-12-07T17:32:34;2.20;99.90
19152;DHT22;9708;53.114;9.388;2022-12-07T17:35:01;2.00;99.90
19152;DHT22;9708;53.114;9.388;2022-12-07T17:37:28;2.10;99.90
19152;DHT22;9708;53.114;9.388;2022-12-07T17:39:56;2.00;99.90
19152;DHT22;9708;53.114;9.388;2022-12-07T17:42:23;2.10;99.90
19152;DHT22;9708;53.114;9.388;2022-12-07T17:45:03;2.00;99.90
19152;DHT22;9708;53.114;9.388;2022-12-07T17:47:30;2.10;99.90
19152;DHT22;9708;53.114;9.388;2022-12-07T17:49:58;2.10;99.90
19152;DHT22;9708;53.114;9.388;2022-12-07T17:52:24;2.00;99.90
19152;DHT22;9708;53.114;9.388;2022-12-07T17:55:09;1.90;99.90
19152;DHT22;9708;53.114;9.388;2022-12-07T17:57:35;1.90;99.90
19152;DHT22;9708;53.114;9.388;2022-12-07T18:00:03;1.80;99.90
19152;DHT22;9708;53.114;9.388;2022-12-07T18:02:30;1.90;99.90
19152;DHT22;9708;53.114;9.388;2022-12-07T18:04:59;1.90;99.90
19152;DHT22;9708;53.114;9.388;2022-12-07T18:07:25;1.70;99.90
19152;DHT22;9708;53.114;9.388;2022-12-07T18:09:52;1.60;99.90
19152;DHT22;9708;53.114;9.388;2022-12-07T18:12:19;1.60;99.90
19152;DHT22;9708;53.114;9.388;2022-12-07T18:14:46;1.60;99.90
19152;DHT22;9708;53.114;9.388;2022-12-07T18:17:13;1.50;99.90
19152;DHT22;9708;53.114;9.388;2022-12-07T18:19:40;1.50;99.90
19152;DHT22;9708;53.114;9.388;2022-12-07T18:22:08;1.60;99.90
19152;DHT22;9708;53.114;9.388;2022-12-07T18:24:35;1.60;99.90
19152;DHT22;9708;53.114;9.388;2022-12-07T18:27:02;1.60;99.90
19152;DHT22;9708;53.114;9.388;2022-12-07T18:29:29;1.60;99.90
19152;DHT22;9708;53.114;9.388;2022-12-07T18:31:56;1.70;99.90
19152;DHT22;9708;53.114;9.388;2022-12-07T18:34:23;1.80;99.90
19152;DHT22;9708;53.114;9.388;2022-12-07T18:36:52;1.80;99.90
19152;DHT22;9708;53.114;9.388;2022-12-07T18:39:21;1.80;99.90
19152;DHT22;9708;53.114;9.388;2022-12-07T18:41:47;1.90;99.90
19152;DHT22;9708;53.114;9.388;2022-12-07T18:44:15;1.90;99.90
19152;DHT22;9708;53.114;9.388;2022-12-07T18:46:42;1.90;99.90
19152;DHT22;9708;53.114;9.388;2022-12-07T18:49:10;1.80;99.90
19152;DHT22;9708;53.114;9.388;2022-12-07T18:51:38;1.80;99.90
19152;DHT22;9708;53.114;9.388;2022-12-07T18:54:04;1.80;99.90
19152;DHT22;9708;53.114;9.388;2022-12-07T18:56:33;1.80;99.90
19152;DHT22;9708;53.114;9.388;2022-12-07T18:59:01;1.80;99.90
19152;DHT22;9708;53.114;9.388;2022-12-07T19:01:48;1.80;99.90
19152;DHT22;9708;53.114;9.388;2022-12-07T19:04:15;1.90;99.90
19152;DHT22;9708;53.114;9.388;2022-12-07T19:06:43;1.90;99.90
19152;DHT22;9708;53.114;9.388;2022-12-07T19:09:10;1.90;99.90
19152;DHT22;9708;53.114;9.388;2022-12-07T19:11:39;2.00;99.90
19152;DHT22;9708;53.114;9.388;2022-12-07T19:14:22;2.00;99.90
19152;DHT22;9708;53.114;9.388;2022-12-07T19:16:51;2.00;99.90
19152;DHT22;9708;53.114;9.388;2022-12-07T19:19:19;2.10;99.90
19152;DHT22;9708;53.114;9.388;2022-12-07T19:21:47;2.10;99.90
19152;DHT22;9708;53.114;9.388;2022-12-07T19:24:14;2.10;99.90
19152;DHT22;9708;53.114;9.388;2022-12-07T19:26:43;2.10;99.90
19152;DHT22;9708;53.114;9.388;2022-12-07T19:29:09;2.20;99.90
19152;DHT22;9708;53.114;9.388;2022-12-07T19:31:36;2.20;99.90
19152;DHT22;9708;53.114;9.388;2022-12-07T19:34:07;2.20;99.90
19152;DHT22;9708;53.114;9.388;2022-12-07T19:36:34;2.30;99.90
19152;DHT22;9708;53.114;9.388;2022-12-07T19:39:01;2.30;99.90
19152;DHT22;9708;53.114;9.388;2022-12-07T19:41:28;2.40;99.90
19152;DHT22;9708;53.114;9.388;2022-12-07T19:44:05;2.40;99.90
19152;DHT22;9708;53.114;9.388;2022-12-07T19:46:32;2.40;99.90
19152;DHT22;9708;53.114;9.388;2022-12-07T19:49:00;2.40;99.90
19152;DHT22;9708;53.114;9.388;2022-12-07T19:51:27;2.50;99.90
19152;DHT22;9708;53.114;9.388;2022-12-07T19:53:55;2.50;99.90
19152;DHT22;9708;53.114;9.388;2022-12-07T19:56:23;2.50;99.90
19152;DHT22;9708;53.114;9.388;2022-12-07T19:58:50;2.60;99.90
19152;DHT22;9708;53.114;9.388;2022-12-07T20:01:18;2.60;99.90
19152;DHT22;9708;53.114;9.388;2022-12-07T20:03:45;2.60;99.90
19152;DHT22;9708;53.114;9.388;2022-12-07T20:06:13;2.70;99.90
19152;DHT22;9708;53.114;9.388;2022-12-07T20:08:41;2.70;99.90
19152;DHT22;9708;53.114;9.388;2022-12-07T20:11:08;2.60;99.90
19152;DHT22;9708;53.114;9.388;2022-12-07T20:13:53;2.60;99.90